createdAt,value
2024-04-12T00:20:49.118Z,7
2024-04-12T00:49:50.747Z,7
2024-04-12T01:18:57.245Z,8
2024-04-12T01:47:53.029Z,8
2024-04-12T02:16:57.465Z,6
2024-04-12T02:46:00.410Z,6
2024-04-12T03:15:01.799Z,7
2024-04-12T03:44:01.764Z,8
2024-04-12T04:13:13.212Z,8
2024-04-12T04:41:53.370Z,6
2024-04-12T05:11:02.878Z,7
2024-04-12T05:40:20.069Z,7
2024-04-12T06:09:30.256Z,7
2024-04-12T06:38:31.535Z,8
2024-04-12T07:07:50.794Z,7
2024-04-12T07:37:01.866Z,8
2024-04-12T08:06:11.050Z,7
2024-04-12T08:35:21.991Z,8
2024-04-12T09:04:25.988Z,9
2024-04-12T09:33:32.158Z,7
2024-04-12T10:02:40.056Z,7
2024-04-12T10:31:47.931Z,9
2024-04-12T11:01:07.601Z,9
2024-04-12T11:30:24.830Z,8
2024-04-12T11:59:39.600Z,6
2024-04-12T12:28:48.638Z,6
2024-04-12T12:57:58.940Z,4
2024-04-12T13:27:09.673Z,6
2024-04-12T13:56:18.097Z,4
2024-04-12T14:25:25.618Z,5
2024-04-12T14:54:33.286Z,4
2024-04-12T15:23:46.250Z,4
2024-04-12T15:52:56.126Z,3
2024-04-12T16:21:56.054Z,3
2024-04-12T16:51:00.742Z,4
2024-04-12T17:19:54.395Z,3
2024-04-12T17:49:01.107Z,5
2024-04-12T18:17:47.285Z,5
2024-04-12T18:46:36.324Z,6
2024-04-12T19:15:30.900Z,7
2024-04-12T19:44:17.684Z,7
2024-04-12T20:13:29.872Z,11
2024-04-12T20:42:34.404Z,7
2024-04-12T21:11:27.859Z,9
2024-04-12T21:40:28.244Z,7
2024-04-12T22:09:29.869Z,7
2024-04-12T22:38:18.840Z,6
2024-04-12T23:07:22.593Z,7
2024-04-12T23:36:20.080Z,6
